sensor_id;sensor_type;location;lat;lon;timestamp;temperature;humidity
61201;DHT22;47065;52.898;6.992;2022-10-29T00:01:53;13.70;99.90
61201;DHT22;47065;52.898;6.992;2022-10-29T00:04:18;13.60;99.90
61201;DHT22;47065;52.898;6.992;2022-10-29T00:06:44;13.60;99.90
61201;DHT22;47065;52.898;6.992;2022-10-29T00:09:11;13.60;99.90
61201;DHT22;47065;52.898;6.992;2022-10-29T00:11:37;13.50;99.90
61201;DHT22;47065;52.898;6.992;2022-10-29T00:14:02;13.50;99.90
61201;DHT22;47065;52.898;6.992;2022-10-29T00:16:33;13.40;99.90
61201;DHT22;47065;52.898;6.992;2022-10-29T00:18:59;13.30;99.90
61201;DHT22;47065;52.898;6.992;2022-10-29T00:21:27;13.20;99.90
61201;DHT22;47065;52.898;6.992;2022-10-29T00:23:53;13.20;99.90
61201;DHT22;47065;52.898;6.992;2022-10-29T00:26:20;13.10;99.90
61201;DHT22;47065;52.898;6.992;2022-10-29T00:28:46;13.10;99.90
61201;DHT22;47065;52.898;6.992;2022-10-29T00:31:14;13.10;99.90
61201;DHT22;47065;52.898;6.992;2022-10-29T00:33:40;13.10;99.90
61201;DHT22;47065;52.898;6.992;2022-10-29T00:36:09;13.10;99.90
61201;DHT22;47065;52.898;6.992;2022-10-29T00:38:35;13.10;99.90
61201;DHT22;47065;52.898;6.992;2022-10-29T00:41:03;13.10;99.90
61201;DHT22;47065;52.898;6.992;2022-10-29T00:43:32;13.20;99.90
61201;DHT22;47065;52.898;6.992;2022-10-29T00:46:10;13.20;99.90
61201;DHT22;47065;52.898;6.992;2022-10-29T00:48:44;13.20;99.90
61201;DHT22;47065;52.898;6.992;2022-10-29T00:51:12;13.30;99.90
61201;DHT22;47065;52.898;6.992;2022-10-29T00:53:43;13.30;99.90
61201;DHT22;47065;52.898;6.992;2022-10-29T00:56:09;13.30;99.90
61201;DHT22;47065;52.898;6.992;2022-10-29T00:58:35;13.30;99.90
61201;DHT22;47065;52.898;6.992;2022-10-29T01:01:01;13.30;99.90
61201;DHT22;47065;52.898;6.992;2022-10-29T01:03:27;13.20;99.90
61201;DHT22;47065;52.898;6.992;2022-10-29T01:05:53;12.90;99.90
61201;DHT22;47065;52.898;6.992;2022-10-29T01:08:19;12.80;99.90
61201;DHT22;47065;52.898;6.992;2022-10-29T01:16:49;12.40;99.90
61201;DHT22;47065;52.898;6.992;2022-10-29T01:19:36;12.20;99.90
61201;DHT22;47065;52.898;6.992;2022-10-29T01:27:39;11.90;99.90
61201;DHT22;47065;52.898;6.992;2022-10-29T01:30:18;11.90;99.90
61201;DHT22;47065;52.898;6.992;2022-10-29T01:35:49;11.70;99.90
61201;DHT22;47065;52.898;6.992;2022-10-29T01:46:38;11.60;99.90
61201;DHT22;47065;52.898;6.992;2022-10-29T01:49:13;11.60;99.90
61201;DHT22;47065;52.898;6.992;2022-10-29T01:51:42;11.60;99.90
61201;DHT22;47065;52.898;6.992;2022-10-29T01:54:09;11.50;99.90
61201;DHT22;47065;52.898;6.992;2022-10-29T01:56:36;11.50;99.90
61201;DHT22;47065;52.898;6.992;2022-10-29T01:59:06;11.50;99.90
61201;DHT22;47065;52.898;6.992;2022-10-29T02:01:44;11.50;99.90
61201;DHT22;47065;52.898;6.992;2022-10-29T02:07:19;11.40;99.90
61201;DHT22;47065;52.898;6.992;2022-10-29T02:17:42;11.20;99.90
61201;DHT22;47065;52.898;6.992;2022-10-29T02:20:09;11.20;99.90
61201;DHT22;47065;52.898;6.992;2022-10-29T02:22:35;11.20;99.90
61201;DHT22;47065;52.898;6.992;2022-10-29T02:25:02;11.10;99.90
61201;DHT22;47065;52.898;6.992;2022-10-29T02:27:28;11.10;99.90
61201;DHT22;47065;52.898;6.992;2022-10-29T02:29:53;11.10;99.90
61201;DHT22;47065;52.898;6.992;2022-10-29T02:32:19;11.10;99.90
61201;DHT22;47065;52.898;6.992;2022-10-29T02:34:44;11.10;99.90
61201;DHT22;47065;52.898;6.992;2022-10-29T02:37:10;11.00;99.90
61201;DHT22;47065;52.898;6.992;2022-10-29T02:39:36;11.00;99.90
61201;DHT22;47065;52.898;6.992;2022-10-29T02:42:01;11.00;99.90
61201;DHT22;47065;52.898;6.992;2022-10-29T02:44:27;11.00;99.90
61201;DHT22;47065;52.898;6.992;2022-10-29T02:46:52;11.00;99.90
61201;DHT22;47065;52.898;6.992;2022-10-29T02:49:18;10.90;99.90
61201;DHT22;47065;52.898;6.992;2022-10-29T02:51:44;10.90;99.90
61201;DHT22;47065;52.898;6.992;2022-10-29T02:54:09;10.90;99.90
61201;DHT22;47065;52.898;6.992;2022-10-29T02:56:35;10.80;99.90
61201;DHT22;47065;52.898;6.992;2022-10-29T02:59:00;10.80;99.90
61201;DHT22;47065;52.898;6.992;2022-10-29T03:01:26;10.70;99.90
61201;DHT22;47065;52.898;6.992;2022-10-29T03:03:52;10.70;99.90
61201;DHT22;47065;52.898;6.992;2022-10-29T03:06:18;10.70;99.90
61201;DHT22;47065;52.898;6.992;2022-10-29T03:08:45;10.70;99.90
61201;DHT22;47065;52.898;6.992;2022-10-29T03:11:11;10.70;99.90
61201;DHT22;47065;52.898;6.992;2022-10-29T03:13:36;10.70;99.90
61201;DHT22;47065;52.898;6.992;2022-10-29T03:16:02;10.60;99.90
61201;DHT22;47065;52.898;6.992;2022-10-29T03:18:28;10.70;99.90
61201;DHT22;47065;52.898;6.992;2022-10-29T03:20:54;10.70;99.90
61201;DHT22;47065;52.898;6.992;2022-10-29T03:23:19;10.70;99.90
61201;DHT22;47065;52.898;6.992;2022-10-29T03:25:53;10.70;99.90
61201;DHT22;47065;52.898;6.992;2022-10-29T03:28:20;10.70;99.90
61201;DHT22;47065;52.898;6.992;2022-10-29T03:30:46;10.70;99.90
61201;DHT22;47065;52.898;6.992;2022-10-29T03:33:12;10.70;99.90
61201;DHT22;47065;52.898;6.992;2022-10-29T03:35:38;10.70;99.90
61201;DHT22;47065;52.898;6.992;2022-10-29T03:38:03;10.60;99.90
61201;DHT22;47065;52.898;6.992;2022-10-29T03:40:29;10.60;99.90
61201;DHT22;47065;52.898;6.992;2022-10-29T03:42:54;10.60;99.90
61201;DHT22;47065;52.898;6.992;2022-10-29T03:45:20;10.60;99.90
61201;DHT22;47065;52.898;6.992;2022-10-29T03:47:46;10.60;99.90
61201;DHT22;47065;52.898;6.992;2022-10-29T03:50:11;10.60;99.90
61201;DHT22;47065;52.898;6.992;2022-10-29T03:52:37;10.60;99.90
61201;DHT22;47065;52.898;6.992;2022-10-29T03:55:03;10.60;99.90
61201;DHT22;47065;52.898;6.992;2022-10-29T03:57:29;10.60;99.90
61201;DHT22;47065;52.898;6.992;2022-10-29T03:59:55;10.60;99.90
61201;DHT22;47065;52.898;6.992;2022-10-29T04:02:21;10.60;99.90
61201;DHT22;47065;52.898;6.992;2022-10-29T04:04:46;10.60;99.90
61201;DHT22;47065;52.898;6.992;2022-10-29T04:07:12;10.60;99.90
61201;DHT22;47065;52.898;6.992;2022-10-29T04:09:38;10.60;99.90
61201;DHT22;47065;52.898;6.992;2022-10-29T04:12:04;10.60;99.90
61201;DHT22;47065;52.898;6.992;2022-10-29T04:14:30;10.60;99.90
61201;DHT22;47065;52.898;6.992;2022-10-29T04:16:56;10.60;99.90
61201;DHT22;47065;52.898;6.992;2022-10-29T04:19:22;10.60;99.90
61201;DHT22;47065;52.898;6.992;2022-10-29T04:21:48;10.60;99.90
61201;DHT22;47065;52.898;6.992;2022-10-29T04:24:13;10.60;99.90
61201;DHT22;47065;52.898;6.992;2022-10-29T04:26:41;10.60;99.90
61201;DHT22;47065;52.898;6.992;2022-10-29T04:29:07;10.60;99.90
61201;DHT22;47065;52.898;6.992;2022-10-29T04:31:32;10.60;99.90
61201;DHT22;47065;52.898;6.992;2022-10-29T04:33:58;10.60;99.90
61201;DHT22;47065;52.898;6.992;2022-10-29T04:36:24;10.60;99.90
61201;DHT22;47065;52.898;6.992;2022-10-29T04:38:49;10.70;99.90
61201;DHT22;47065;52.898;6.992;2022-10-29T04:41:15;10.70;99.90
61201;DHT22;47065;52.898;6.992;2022-10-29T04:43:41;10.70;99.90
61201;DHT22;47065;52.898;6.992;2022-10-29T04:46:08;10.70;99.90
61201;DHT22;47065;52.898;6.992;2022-10-29T04:48:34;10.80;99.90
61201;DHT22;47065;52.898;6.992;2022-10-29T04:51:00;10.80;99.90
61201;DHT22;47065;52.898;6.992;2022-10-29T04:53:26;10.80;99.90
61201;DHT22;47065;52.898;6.992;2022-10-29T04:56:00;10.80;99.90
61201;DHT22;47065;52.898;6.992;2022-10-29T04:58:27;10.90;99.90
61201;DHT22;47065;52.898;6.992;2022-10-29T05:00:59;10.90;99.90
61201;DHT22;47065;52.898;6.992;2022-10-29T05:03:24;10.90;99.90
61201;DHT22;47065;52.898;6.992;2022-10-29T05:05:50;11.00;99.90
61201;DHT22;47065;52.898;6.992;2022-10-29T05:08:15;11.00;99.90
61201;DHT22;47065;52.898;6.992;2022-10-29T05:10:42;11.00;99.90
61201;DHT22;47065;52.898;6.992;2022-10-29T05:13:10;11.10;99.90
61201;DHT22;47065;52.898;6.992;2022-10-29T05:15:36;11.10;99.90
61201;DHT22;47065;52.898;6.992;2022-10-29T05:18:03;11.20;99.90
61201;DHT22;47065;52.898;6.992;2022-10-29T05:20:29;11.20;99.90
61201;DHT22;47065;52.898;6.992;2022-10-29T05:23:06;11.20;99.90
61201;DHT22;47065;52.898;6.992;2022-10-29T05:25:34;11.30;99.90
61201;DHT22;47065;52.898;6.992;2022-10-29T05:30:30;11.40;99.90
61201;DHT22;47065;52.898;6.992;2022-10-29T05:32:56;11.40;99.90
61201;DHT22;47065;52.898;6.992;2022-10-29T05:35:22;11.40;99.90
61201;DHT22;47065;52.898;6.992;2022-10-29T05:37:55;11.50;99.90
61201;DHT22;47065;52.898;6.992;2022-10-29T05:40:22;11.50;99.90
61201;DHT22;47065;52.898;6.992;2022-10-29T05:42:48;11.60;99.90
61201;DHT22;47065;52.898;6.992;2022-10-29T05:45:14;11.60;99.90
61201;DHT22;47065;52.898;6.992;2022-10-29T05:47:40;11.60;99.90
61201;DHT22;47065;52.898;6.992;2022-10-29T05:50:06;11.70;99.90
61201;DHT22;47065;52.898;6.992;2022-10-29T05:52:32;11.70;99.90
61201;DHT22;47065;52.898;6.992;2022-10-29T05:54:58;11.70;99.90
61201;DHT22;47065;52.898;6.992;2022-10-29T05:57:23;11.80;99.90
61201;DHT22;47065;52.898;6.992;2022-10-29T05:59:49;11.80;99.90
61201;DHT22;47065;52.898;6.992;2022-10-29T06:02:15;11.80;99.90
61201;DHT22;47065;52.898;6.992;2022-10-29T06:04:40;11.80;99.90
61201;DHT22;47065;52.898;6.992;2022-10-29T06:07:06;11.80;99.90
61201;DHT22;47065;52.898;6.992;2022-10-29T06:09:31;11.90;99.90
61201;DHT22;47065;52.898;6.992;2022-10-29T06:11:57;11.90;99.90
61201;DHT22;47065;52.898;6.992;2022-10-29T06:14:23;11.90;99.90
61201;DHT22;47065;52.898;6.992;2022-10-29T06:16:48;11.90;99.90
61201;DHT22;47065;52.898;6.992;2022-10-29T06:19:14;11.90;99.90
61201;DHT22;47065;52.898;6.992;2022-10-29T06:21:40;12.00;99.90
61201;DHT22;47065;52.898;6.992;2022-10-29T06:24:05;11.90;99.90
61201;DHT22;47065;52.898;6.992;2022-10-29T06:26:31;11.90;99.90
61201;DHT22;47065;52.898;6.992;2022-10-29T06:28:58;11.90;99.90
61201;DHT22;47065;52.898;6.992;2022-10-29T06:31:24;11.90;99.90
61201;DHT22;47065;52.898;6.992;2022-10-29T06:33:49;12.00;99.90
61201;DHT22;47065;52.898;6.992;2022-10-29T06:36:15;12.00;99.90
61201;DHT22;47065;52.898;6.992;2022-10-29T06:38:40;12.00;99.90
61201;DHT22;47065;52.898;6.992;2022-10-29T06:41:06;12.00;99.90
61201;DHT22;47065;52.898;6.992;2022-10-29T06:43:34;12.00;99.90
61201;DHT22;47065;52.898;6.992;2022-10-29T06:45:59;12.00;99.90
61201;DHT22;47065;52.898;6.992;2022-10-29T06:48:25;12.00;99.90
61201;DHT22;47065;52.898;6.992;2022-10-29T06:50:51;12.00;99.90
61201;DHT22;47065;52.898;6.992;2022-10-29T06:53:17;12.00;99.90
61201;DHT22;47065;52.898;6.992;2022-10-29T06:55:43;12.00;99.90
61201;DHT22;47065;52.898;6.992;2022-10-29T06:58:14;12.00;99.90
61201;DHT22;47065;52.898;6.992;2022-10-29T07:00:41;12.00;99.90
61201;DHT22;47065;52.898;6.992;2022-10-29T07:03:10;12.00;99.90
61201;DHT22;47065;52.898;6.992;2022-10-29T07:05:36;12.00;99.90
61201;DHT22;47065;52.898;6.992;2022-10-29T07:08:02;12.00;99.90
61201;DHT22;47065;52.898;6.992;2022-10-29T07:10:29;12.10;99.90
61201;DHT22;47065;52.898;6.992;2022-10-29T07:12:55;12.10;99.90
61201;DHT22;47065;52.898;6.992;2022-10-29T07:15:21;12.10;99.90
61201;DHT22;47065;52.898;6.992;2022-10-29T07:20:22;12.20;99.90
61201;DHT22;47065;52.898;6.992;2022-10-29T07:22:48;12.20;99.90
61201;DHT22;47065;52.898;6.992;2022-10-29T07:25:13;12.20;99.90
61201;DHT22;47065;52.898;6.992;2022-10-29T07:27:39;12.30;99.90
61201;DHT22;47065;52.898;6.992;2022-10-29T07:30:05;12.30;99.90
61201;DHT22;47065;52.898;6.992;2022-10-29T07:32:31;12.30;99.90
61201;DHT22;47065;52.898;6.992;2022-10-29T07:34:56;12.30;99.90
61201;DHT22;47065;52.898;6.992;2022-10-29T07:37:22;12.30;99.90
61201;DHT22;47065;52.898;6.992;2022-10-29T07:39:47;12.40;99.90
61201;DHT22;47065;52.898;6.992;2022-10-29T07:42:13;12.40;99.90
61201;DHT22;47065;52.898;6.992;2022-10-29T07:44:39;12.40;99.90
61201;DHT22;47065;52.898;6.992;2022-10-29T07:47:04;12.40;99.90
61201;DHT22;47065;52.898;6.992;2022-10-29T07:49:30;12.50;99.90
61201;DHT22;47065;52.898;6.992;2022-10-29T07:51:55;12.50;99.90
61201;DHT22;47065;52.898;6.992;2022-10-29T07:54:21;12.50;99.90
61201;DHT22;47065;52.898;6.992;2022-10-29T07:56:47;12.50;99.90
61201;DHT22;47065;52.898;6.992;2022-10-29T07:59:12;12.50;99.90
61201;DHT22;47065;52.898;6.992;2022-10-29T08:01:40;12.50;99.90
61201;DHT22;47065;52.898;6.992;2022-10-29T08:04:05;12.60;99.90
61201;DHT22;47065;52.898;6.992;2022-10-29T08:06:31;12.60;99.90
61201;DHT22;47065;52.898;6.992;2022-10-29T08:08:57;12.60;99.90
61201;DHT22;47065;52.898;6.992;2022-10-29T08:11:22;12.70;99.90
61201;DHT22;47065;52.898;6.992;2022-10-29T08:13:48;12.70;99.90
61201;DHT22;47065;52.898;6.992;2022-10-29T08:16:14;12.80;99.90
61201;DHT22;47065;52.898;6.992;2022-10-29T08:18:39;12.90;99.90
61201;DHT22;47065;52.898;6.992;2022-10-29T08:21:05;12.90;99.90
61201;DHT22;47065;52.898;6.992;2022-10-29T08:23:31;13.00;99.90
61201;DHT22;47065;52.898;6.992;2022-10-29T08:25:57;13.10;99.90
61201;DHT22;47065;52.898;6.992;2022-10-29T08:28:23;13.10;99.90
61201;DHT22;47065;52.898;6.992;2022-10-29T08:30:49;13.20;99.90
61201;DHT22;47065;52.898;6.992;2022-10-29T08:33:15;13.30;99.90
61201;DHT22;47065;52.898;6.992;2022-10-29T08:35:41;13.40;99.90
61201;DHT22;47065;52.898;6.992;2022-10-29T08:38:07;13.40;99.90
61201;DHT22;47065;52.898;6.992;2022-10-29T08:49:18;13.70;99.90
61201;DHT22;47065;52.898;6.992;2022-10-29T08:52:12;13.90;99.90
61201;DHT22;47065;52.898;6.992;2022-10-29T08:54:46;13.90;99.90
61201;DHT22;47065;52.898;6.992;2022-10-29T08:57:17;14.00;99.90
61201;DHT22;47065;52.898;6.992;2022-10-29T09:00:06;14.20;99.90
61201;DHT22;47065;52.898;6.992;2022-10-29T09:02:32;14.20;99.90
61201;DHT22;47065;52.898;6.992;2022-10-29T09:04:58;14.30;99.90
61201;DHT22;47065;52.898;6.992;2022-10-29T09:15:26;14.60;99.90
61201;DHT22;47065;52.898;6.992;2022-10-29T09:23:47;15.00;99.90
61201;DHT22;47065;52.898;6.992;2022-10-29T09:34:00;15.40;99.90
61201;DHT22;47065;52.898;6.992;2022-10-29T09:36:28;15.50;99.90
61201;DHT22;47065;52.898;6.992;2022-10-29T09:39:17;15.60;99.90
61201;DHT22;47065;52.898;6.992;2022-10-29T09:41:45;15.70;99.90
61201;DHT22;47065;52.898;6.992;2022-10-29T09:44:36;15.80;99.90
61201;DHT22;47065;52.898;6.992;2022-10-29T09:52:20;16.00;99.90
61201;DHT22;47065;52.898;6.992;2022-10-29T09:54:48;16.00;99.90
61201;DHT22;47065;52.898;6.992;2022-10-29T09:57:21;16.10;99.90
61201;DHT22;47065;52.898;6.992;2022-10-29T09:59:53;16.20;99.90
61201;DHT22;47065;52.898;6.992;2022-10-29T10:04:54;16.30;99.90
61201;DHT22;47065;52.898;6.992;2022-10-29T10:07:21;16.40;99.90
61201;DHT22;47065;52.898;6.992;2022-10-29T10:10:01;16.40;99.90
61201;DHT22;47065;52.898;6.992;2022-10-29T10:15:27;16.50;99.90
61201;DHT22;47065;52.898;6.992;2022-10-29T10:17:54;16.60;99.90
61201;DHT22;47065;52.898;6.992;2022-10-29T10:22:51;16.80;99.90
61201;DHT22;47065;52.898;6.992;2022-10-29T10:25:32;16.90;99.90
61201;DHT22;47065;52.898;6.992;2022-10-29T10:28:02;17.00;99.90
61201;DHT22;47065;52.898;6.992;2022-10-29T10:30:28;17.10;99.90
61201;DHT22;47065;52.898;6.992;2022-10-29T10:33:09;17.10;99.90
61201;DHT22;47065;52.898;6.992;2022-10-29T10:35:35;17.20;99.90
61201;DHT22;47065;52.898;6.992;2022-10-29T10:38:07;17.30;99.90
61201;DHT22;47065;52.898;6.992;2022-10-29T10:40:33;17.40;99.90
61201;DHT22;47065;52.898;6.992;2022-10-29T10:43:02;17.50;99.90
61201;DHT22;47065;52.898;6.992;2022-10-29T10:45:57;17.60;99.90
61201;DHT22;47065;52.898;6.992;2022-10-29T10:48:25;17.80;99.90
61201;DHT22;47065;52.898;6.992;2022-10-29T10:51:08;18.00;99.90
61201;DHT22;47065;52.898;6.992;2022-10-29T10:53:34;18.20;99.90
61201;DHT22;47065;52.898;6.992;2022-10-29T10:56:03;18.30;99.90
61201;DHT22;47065;52.898;6.992;2022-10-29T10:58:40;18.40;99.90
61201;DHT22;47065;52.898;6.992;2022-10-29T11:03:54;18.80;99.90
61201;DHT22;47065;52.898;6.992;2022-10-29T11:11:31;19.30;99.90
61201;DHT22;47065;52.898;6.992;2022-10-29T11:14:02;19.40;99.90
61201;DHT22;47065;52.898;6.992;2022-10-29T11:22:00;19.60;99.90
61201;DHT22;47065;52.898;6.992;2022-10-29T11:24:37;19.60;99.90
61201;DHT22;47065;52.898;6.992;2022-10-29T11:30:04;19.60;99.90
61201;DHT22;47065;52.898;6.992;2022-10-29T11:35:43;19.60;99.90
61201;DHT22;47065;52.898;6.992;2022-10-29T11:38:22;19.70;99.90
61201;DHT22;47065;52.898;6.992;2022-10-29T11:40:58;19.70;99.90
61201;DHT22;47065;52.898;6.992;2022-10-29T11:43:29;19.70;99.90
61201;DHT22;47065;52.898;6.992;2022-10-29T11:49:24;19.80;99.90
61201;DHT22;47065;52.898;6.992;2022-10-29T11:54:43;19.90;99.90
61201;DHT22;47065;52.898;6.992;2022-10-29T11:57:15;19.90;99.90
61201;DHT22;47065;52.898;6.992;2022-10-29T11:59:51;20.00;99.90
61201;DHT22;47065;52.898;6.992;2022-10-29T12:26:01;20.70;99.90
61201;DHT22;47065;52.898;6.992;2022-10-29T12:28:45;20.80;99.90
61201;DHT22;47065;52.898;6.992;2022-10-29T12:33:54;20.90;99.90
61201;DHT22;47065;52.898;6.992;2022-10-29T12:36:58;20.90;99.90
61201;DHT22;47065;52.898;6.992;2022-10-29T12:39:40;20.90;99.90
61201;DHT22;47065;52.898;6.992;2022-10-29T12:42:18;20.90;99.90
61201;DHT22;47065;52.898;6.992;2022-10-29T12:45:02;20.80;99.90
61201;DHT22;47065;52.898;6.992;2022-10-29T12:47:36;20.80;99.90
61201;DHT22;47065;52.898;6.992;2022-10-29T12:55:15;20.80;99.90
61201;DHT22;47065;52.898;6.992;2022-10-29T12:57:41;20.70;99.90
61201;DHT22;47065;52.898;6.992;2022-10-29T13:02:48;20.60;99.90
61201;DHT22;47065;52.898;6.992;2022-10-29T13:05:18;20.60;99.90
61201;DHT22;47065;52.898;6.992;2022-10-29T13:15:45;20.30;99.90
61201;DHT22;47065;52.898;6.992;2022-10-29T13:18:19;20.30;99.90
61201;DHT22;47065;52.898;6.992;2022-10-29T13:20:52;20.30;99.90
61201;DHT22;47065;52.898;6.992;2022-10-29T13:25:54;20.30;99.90
61201;DHT22;47065;52.898;6.992;2022-10-29T13:30:51;20.20;99.90
61201;DHT22;47065;52.898;6.992;2022-10-29T13:35:59;20.20;99.90
61201;DHT22;47065;52.898;6.992;2022-10-29T13:38:41;20.20;99.90
61201;DHT22;47065;52.898;6.992;2022-10-29T13:41:13;20.20;99.90
61201;DHT22;47065;52.898;6.992;2022-10-29T13:43:43;20.30;99.90
61201;DHT22;47065;52.898;6.992;2022-10-29T13:46:22;20.30;99.90
61201;DHT22;47065;52.898;6.992;2022-10-29T13:48:51;20.40;99.90
61201;DHT22;47065;52.898;6.992;2022-10-29T13:51:27;20.40;99.90
61201;DHT22;47065;52.898;6.992;2022-10-29T13:53:58;20.40;99.90
61201;DHT22;47065;52.898;6.992;2022-10-29T13:56:32;20.50;99.90
61201;DHT22;47065;52.898;6.992;2022-10-29T13:59:01;20.60;99.90
61201;DHT22;47065;52.898;6.992;2022-10-29T14:01:31;20.60;99.90
61201;DHT22;47065;52.898;6.992;2022-10-29T14:04:01;20.60;99.90
61201;DHT22;47065;52.898;6.992;2022-10-29T14:06:33;20.50;99.90
61201;DHT22;47065;52.898;6.992;2022-10-29T14:11:38;20.50;99.90
61201;DHT22;47065;52.898;6.992;2022-10-29T14:14:20;20.40;99.90
61201;DHT22;47065;52.898;6.992;2022-10-29T14:16:47;20.40;99.90
61201;DHT22;47065;52.898;6.992;2022-10-29T14:19:19;20.40;99.90
61201;DHT22;47065;52.898;6.992;2022-10-29T14:21:45;20.40;99.90
61201;DHT22;47065;52.898;6.992;2022-10-29T14:24:14;20.30;99.90
61201;DHT22;47065;52.898;6.992;2022-10-29T14:26:42;20.30;99.90
61201;DHT22;47065;52.898;6.992;2022-10-29T14:29:21;20.30;99.90
61201;DHT22;47065;52.898;6.992;2022-10-29T14:34:49;20.30;99.90
61201;DHT22;47065;52.898;6.992;2022-10-29T14:37:23;20.30;99.90
61201;DHT22;47065;52.898;6.992;2022-10-29T14:39:52;20.30;99.90
61201;DHT22;47065;52.898;6.992;2022-10-29T14:42:31;20.20;99.90
61201;DHT22;47065;52.898;6.992;2022-10-29T14:45:00;20.30;99.90
61201;DHT22;47065;52.898;6.992;2022-10-29T14:47:31;20.30;99.90
61201;DHT22;47065;52.898;6.992;2022-10-29T14:49:58;20.30;99.90
61201;DHT22;47065;52.898;6.992;2022-10-29T14:52:32;20.30;99.90
61201;DHT22;47065;52.898;6.992;2022-10-29T14:55:04;20.30;99.90
61201;DHT22;47065;52.898;6.992;2022-10-29T14:57:33;20.20;99.90
61201;DHT22;47065;52.898;6.992;2022-10-29T15:00:03;20.10;99.90
61201;DHT22;47065;52.898;6.992;2022-10-29T15:02:39;20.10;99.90
61201;DHT22;47065;52.898;6.992;2022-10-29T15:07:49;19.90;99.90
61201;DHT22;47065;52.898;6.992;2022-10-29T15:10:16;19.80;99.90
61201;DHT22;47065;52.898;6.992;2022-10-29T15:12:43;19.80;99.90
61201;DHT22;47065;52.898;6.992;2022-10-29T15:15:27;19.70;99.90
61201;DHT22;47065;52.898;6.992;2022-10-29T15:18:05;19.60;99.90
61201;DHT22;47065;52.898;6.992;2022-10-29T15:20:51;19.60;99.90
61201;DHT22;47065;52.898;6.992;2022-10-29T15:23:31;19.60;99.90
61201;DHT22;47065;52.898;6.992;2022-10-29T15:26:03;19.40;99.90
61201;DHT22;47065;52.898;6.992;2022-10-29T15:28:36;19.40;99.90
61201;DHT22;47065;52.898;6.992;2022-10-29T15:31:03;19.30;99.90
61201;DHT22;47065;52.898;6.992;2022-10-29T15:33:30;19.30;99.90
61201;DHT22;47065;52.898;6.992;2022-10-29T15:36:03;19.20;99.90
61201;DHT22;47065;52.898;6.992;2022-10-29T15:43:38;19.00;99.90
61201;DHT22;47065;52.898;6.992;2022-10-29T15:46:20;19.00;99.90
61201;DHT22;47065;52.898;6.992;2022-10-29T15:48:45;18.90;99.90
61201;DHT22;47065;52.898;6.992;2022-10-29T15:51:11;18.90;99.90
61201;DHT22;47065;52.898;6.992;2022-10-29T15:53:37;18.80;99.90
61201;DHT22;47065;52.898;6.992;2022-10-29T15:56:02;18.70;99.90
61201;DHT22;47065;52.898;6.992;2022-10-29T15:58:28;18.60;99.90
61201;DHT22;47065;52.898;6.992;2022-10-29T16:00:54;18.50;99.90
61201;DHT22;47065;52.898;6.992;2022-10-29T16:03:24;18.40;99.90
61201;DHT22;47065;52.898;6.992;2022-10-29T16:11:14;18.20;99.90
61201;DHT22;47065;52.898;6.992;2022-10-29T16:13:40;18.10;99.90
61201;DHT22;47065;52.898;6.992;2022-10-29T16:16:12;18.00;99.90
61201;DHT22;47065;52.898;6.992;2022-10-29T16:18:38;17.90;99.90
61201;DHT22;47065;52.898;6.992;2022-10-29T16:21:05;17.80;99.90
61201;DHT22;47065;52.898;6.992;2022-10-29T16:23:32;17.80;99.90
61201;DHT22;47065;52.898;6.992;2022-10-29T16:26:01;17.70;99.90
61201;DHT22;47065;52.898;6.992;2022-10-29T16:28:26;17.70;99.90
61201;DHT22;47065;52.898;6.992;2022-10-29T16:30:53;17.60;99.90
61201;DHT22;47065;52.898;6.992;2022-10-29T16:33:20;17.50;99.90
61201;DHT22;47065;52.898;6.992;2022-10-29T16:35:45;17.50;99.90
61201;DHT22;47065;52.898;6.992;2022-10-29T16:38:11;17.40;99.90
61201;DHT22;47065;52.898;6.992;2022-10-29T16:40:37;17.40;99.90
61201;DHT22;47065;52.898;6.992;2022-10-29T16:43:02;17.40;99.90
61201;DHT22;47065;52.898;6.992;2022-10-29T16:45:29;17.40;99.90
61201;DHT22;47065;52.898;6.992;2022-10-29T16:47:55;17.30;99.90
61201;DHT22;47065;52.898;6.992;2022-10-29T16:50:39;17.30;99.90
61201;DHT22;47065;52.898;6.992;2022-10-29T16:53:07;17.30;99.90
61201;DHT22;47065;52.898;6.992;2022-10-29T16:55:35;17.30;99.90
61201;DHT22;47065;52.898;6.992;2022-10-29T16:58:01;17.30;99.90
61201;DHT22;47065;52.898;6.992;2022-10-29T17:00:27;17.20;99.90
61201;DHT22;47065;52.898;6.992;2022-10-29T17:02:58;17.20;99.90
61201;DHT22;47065;52.898;6.992;2022-10-29T17:05:24;17.20;99.90
61201;DHT22;47065;52.898;6.992;2022-10-29T17:07:52;17.20;99.90
61201;DHT22;47065;52.898;6.992;2022-10-29T17:10:19;17.10;99.90
61201;DHT22;47065;52.898;6.992;2022-10-29T17:12:44;17.10;99.90
61201;DHT22;47065;52.898;6.992;2022-10-29T17:15:10;17.00;99.90
61201;DHT22;47065;52.898;6.992;2022-10-29T17:17:35;17.00;99.90
61201;DHT22;47065;52.898;6.992;2022-10-29T17:20:01;16.90;99.90
61201;DHT22;47065;52.898;6.992;2022-10-29T17:22:27;16.90;99.90
61201;DHT22;47065;52.898;6.992;2022-10-29T17:24:52;16.90;99.90
61201;DHT22;47065;52.898;6.992;2022-10-29T17:27:18;16.80;99.90
61201;DHT22;47065;52.898;6.992;2022-10-29T17:29:44;16.80;99.90
61201;DHT22;47065;52.898;6.992;2022-10-29T17:32:09;16.80;99.90
61201;DHT22;47065;52.898;6.992;2022-10-29T17:34:35;16.80;99.90
61201;DHT22;47065;52.898;6.992;2022-10-29T17:37:00;16.70;99.90
61201;DHT22;47065;52.898;6.992;2022-10-29T17:39:26;16.70;99.90
61201;DHT22;47065;52.898;6.992;2022-10-29T17:41:53;16.60;99.90
61201;DHT22;47065;52.898;6.992;2022-10-29T17:44:18;16.70;99.90
61201;DHT22;47065;52.898;6.992;2022-10-29T17:46:44;16.60;99.90
61201;DHT22;47065;52.898;6.992;2022-10-29T17:49:10;16.60;99.90
61201;DHT22;47065;52.898;6.992;2022-10-29T17:51:35;16.60;99.90
61201;DHT22;47065;52.898;6.992;2022-10-29T17:54:01;16.50;99.90
61201;DHT22;47065;52.898;6.992;2022-10-29T17:56:27;16.50;99.90
61201;DHT22;47065;52.898;6.992;2022-10-29T17:58:52;16.50;99.90
61201;DHT22;47065;52.898;6.992;2022-10-29T18:01:18;16.50;99.90
61201;DHT22;47065;52.898;6.992;2022-10-29T18:03:43;16.50;99.90
61201;DHT22;47065;52.898;6.992;2022-10-29T18:06:11;16.40;99.90
61201;DHT22;47065;52.898;6.992;2022-10-29T18:08:39;16.30;99.90
61201;DHT22;47065;52.898;6.992;2022-10-29T18:11:07;16.30;99.90
61201;DHT22;47065;52.898;6.992;2022-10-29T18:13:35;16.30;99.90
61201;DHT22;47065;52.898;6.992;2022-10-29T18:16:10;16.30;99.90
61201;DHT22;47065;52.898;6.992;2022-10-29T18:18:37;16.20;99.90
61201;DHT22;47065;52.898;6.992;2022-10-29T18:21:04;16.20;99.90
61201;DHT22;47065;52.898;6.992;2022-10-29T18:23:30;16.10;99.90
61201;DHT22;47065;52.898;6.992;2022-10-29T18:26:03;16.10;99.90
61201;DHT22;47065;52.898;6.992;2022-10-29T18:28:32;16.10;99.90
61201;DHT22;47065;52.898;6.992;2022-10-29T18:31:04;16.10;99.90
61201;DHT22;47065;52.898;6.992;2022-10-29T18:33:30;16.00;99.90
61201;DHT22;47065;52.898;6.992;2022-10-29T18:35:56;16.00;99.90